Terminal Aerodrome Forecast
Issued by NWS

Home | Current Version | Previous Version | Text Only | Print | Product List | Glossary On
Versions: 1 2 3 4 5 6 7 8 9 10 11 12 13 14 15 16 17 18 19 20 21 22 23 24 25 26 27
640
FTUS44 KEWX 282352
TAFSSF
TAF
KSSF 282352Z 2900/2924 09008KT 6SM HZ BKN018
     FM290200 13010KT P6SM OVC012
     FM290400 15008KT 5SM BR OVC007
     FM291600 16012KT 5SM BR VCSH BKN012 OVC035
     FM291900 16012G22KT P6SM VCTS BKN035CB=

USA.gov is the U.S. government's official web portal to all federal, state and local government web resources and services.